Time;durP1;ratioP1;P1;durP2;ratioP2;P2;SDS_P1;SDS_P2;PMS_P1;PMS_P2;Temp;Humidity;BMP_temperature;BMP_pressure;BME280_temperature;BME280_humidity;BME280_pressure;Samples;Min_cycle;Max_cycle;Signal;HPM_P1;HPM_P2
2021/09/27 00:00:00;;;;;;;;;;;;;;;10.90;73.76;100033.94;5016364;28;19921;-77
2021/09/27 00:02:26;;;;;;;;;;;;;;;10.86;73.70;100043.50;5015452;28;19924;-78
2021/09/27 00:04:52;;;;;;;;;;;;;;;10.83;74.30;100044.38;5017860;28;19937;-75
2021/09/27 00:07:17;;;;;;;;;;;;;;;10.83;73.79;100049.59;5033930;28;20406;-77
2021/09/27 00:09:44;;;;;;;;;;;;;;;10.84;73.93;100053.94;4999979;28;19925;-77
2021/09/27 00:12:12;;;;;;;;;;;;;;;10.85;73.76;100053.06;5020450;28;19921;-77
2021/09/27 00:14:38;;;;;;;;;;;;;;;10.88;74.10;100059.97;5021370;28;19953;-76
2021/09/27 00:17:07;;;;;;;;;;;;;;;10.89;73.75;100059.09;5033566;28;19905;-76
2021/09/27 00:19:34;;;;;;;;;;;;;;;10.91;73.83;100059.97;5057317;28;19976;-76
2021/09/27 00:22:00;;;;;;;;;;;;;;;10.91;74.25;100065.16;5030602;28;19925;-76
2021/09/27 00:24:26;;;;;;;;;;;;;;;10.92;73.96;100064.28;5017900;28;21069;-75
2021/09/27 00:26:52;;;;;;;;;;;;;;;10.98;74.09;100068.59;5016633;28;19936;-75
2021/09/27 00:29:17;;;;;;;;;;;;;;;10.98;74.00;100072.06;5035307;28;19936;-74
2021/09/27 00:31:43;;;;;;;;;;;;;;;11.01;74.02;100079.00;5016796;28;19921;-77
2021/09/27 00:34:10;;;;;;;;;;;;;;;11.02;73.98;100072.06;5016347;28;20287;-76
2021/09/27 00:36:35;;;;;;;;;;;;;;;11.02;73.97;100077.28;5014430;28;20071;-75
2021/09/27 00:39:02;;;;;;;;;;;;;;;11.04;73.80;100075.50;5033546;28;20412;-77
2021/09/27 00:41:28;;;;;;;;;;;;;;;11.03;73.61;100079.84;5032243;28;20317;-75
2021/09/27 00:43:53;;;;;;;;;;;;;;;11.00;73.82;100091.16;5034623;28;19921;-76
2021/09/27 00:46:21;;;;;;;;;;;;;;;10.94;73.80;100085.97;5015436;28;19921;-75
2021/09/27 00:48:47;;;;;;;;;;;;;;;10.93;73.98;100078.16;5014780;28;19925;-76
2021/09/27 00:51:18;;;;;;;;;;;;;;;10.95;73.97;100082.50;4999299;28;20402;-75
2021/09/27 00:53:46;;;;;;;;;;;;;;;10.96;73.61;100083.34;4998009;28;20286;-75
2021/09/27 00:56:13;;;;;;;;;;;;;;;10.89;73.33;100098.16;5014740;28;19925;-77
2021/09/27 00:58:39;;;;;;;;;;;;;;;10.85;73.59;100099.03;5016641;28;19925;-75
2021/09/27 01:01:05;;;;;;;;;;;;;;;10.83;73.66;100105.97;5016186;28;19924;-76
2021/09/27 01:03:31;;;;;;;;;;;;;;;10.80;73.71;100114.69;5027748;28;20380;-77
2021/09/27 01:06:05;;;;;;;;;;;;;;;10.84;74.00;100120.72;5018705;28;19920;-77
2021/09/27 01:08:30;;;;;;;;;;;;;;;10.83;73.60;100125.09;5034936;28;19921;-76
2021/09/27 01:10:56;;;;;;;;;;;;;;;10.83;73.84;100125.09;5025134;28;19975;-75
2021/09/27 01:13:31;;;;;;;;;;;;;;;10.87;73.92;100132.88;4999960;28;19933;-78
2021/09/27 01:15:57;;;;;;;;;;;;;;;10.91;73.82;100134.59;5016052;28;19924;-84
2021/09/27 01:18:51;;;;;;;;;;;;;;;10.93;73.83;100140.66;5035554;28;20364;-78
2021/09/27 01:21:37;;;;;;;;;;;;;;;10.92;73.67;100142.41;5032760;28;19921;-76
2021/09/27 01:24:21;;;;;;;;;;;;;;;10.87;73.53;100140.69;4989140;28;19987;-77
2021/09/27 01:27:16;;;;;;;;;;;;;;;10.87;73.61;100138.09;5034565;28;19931;-75
2021/09/27 01:29:42;;;;;;;;;;;;;;;10.84;73.69;100138.94;5019573;28;19932;-76
2021/09/27 01:32:10;;;;;;;;;;;;;;;10.87;73.98;100144.16;5020214;28;19920;-77
2021/09/27 01:34:40;;;;;;;;;;;;;;;10.87;74.04;100145.91;5033548;28;19931;-77
2021/09/27 01:37:18;;;;;;;;;;;;;;;10.87;73.96;100154.56;5036704;28;19951;-77
2021/09/27 01:39:52;;;;;;;;;;;;;;;10.84;73.93;100158.06;5036663;28;19964;-78
2021/09/27 01:42:19;;;;;;;;;;;;;;;10.83;73.83;100166.75;5020333;28;19982;-76
2021/09/27 01:45:02;;;;;;;;;;;;;;;10.79;73.24;100165.00;5019306;28;19963;-76
2021/09/27 01:47:34;;;;;;;;;;;;;;;10.77;73.96;100158.09;5017185;28;19921;-76
2021/09/27 01:50:00;;;;;;;;;;;;;;;10.73;73.84;100166.78;5035995;28;19925;-77
2021/09/27 01:52:39;;;;;;;;;;;;;;;10.73;74.20;100174.59;5016954;28;19931;-76
2021/09/27 01:55:14;;;;;;;;;;;;;;;10.70;74.05;100175.47;5036743;28;19988;-76
2021/09/27 01:58:01;;;;;;;;;;;;;;;10.72;73.96;100173.72;5014949;28;19921;-77
2021/09/27 02:00:31;;;;;;;;;;;;;;;10.72;73.90;100181.50;5042999;28;19916;-77
2021/09/27 02:03:17;;;;;;;;;;;;;;;10.72;74.12;100189.31;5055396;28;19969;-77
2021/09/27 02:05:51;;;;;;;;;;;;;;;10.67;73.60;100191.94;5038743;28;19995;-78
2021/09/27 02:08:16;;;;;;;;;;;;;;;10.63;73.56;100189.38;5040079;28;19933;-77
2021/09/27 02:10:42;;;;;;;;;;;;;;;10.60;73.93;100190.22;5018063;28;19933;-77
2021/09/27 02:13:10;;;;;;;;;;;;;;;10.55;74.13;100192.84;5032323;28;19985;-76
2021/09/27 02:15:50;;;;;;;;;;;;;;;10.52;74.02;100203.25;5051925;28;19925;-76
2021/09/27 02:18:22;;;;;;;;;;;;;;;10.53;73.84;100202.41;5034908;28;19920;-77
2021/09/27 02:20:51;;;;;;;;;;;;;;;10.47;74.19;100184.22;5016557;28;20252;-76
2021/09/27 02:23:21;;;;;;;;;;;;;;;10.58;73.97;100201.53;5015530;28;20372;-76
2021/09/27 02:25:47;;;;;;;;;;;;;;;10.59;74.35;100200.66;5033276;28;19976;-77
2021/09/27 02:28:18;;;;;;;;;;;;;;;10.60;73.98;100199.78;5017113;28;20012;-77
2021/09/27 02:30:46;;;;;;;;;;;;;;;10.55;74.14;100218.03;5032318;28;20304;-77
2021/09/27 02:33:12;;;;;;;;;;;;;;;10.48;73.97;100211.94;5022450;28;20368;-77
2021/09/27 02:35:57;;;;;;;;;;;;;;;10.51;74.42;100217.13;5012653;28;19960;-76
2021/09/27 02:38:26;;;;;;;;;;;;;;;10.52;74.11;100211.06;5020181;28;19925;-76
2021/09/27 02:41:21;;;;;;;;;;;;;;;10.54;74.32;100214.53;5034644;28;19981;-77
2021/09/27 02:43:47;;;;;;;;;;;;;;;10.55;74.43;100218.03;5012765;28;19926;-76
2021/09/27 02:46:13;;;;;;;;;;;;;;;10.59;74.32;100213.66;5035002;28;19993;-77
2021/09/27 02:48:41;;;;;;;;;;;;;;;10.56;74.27;100217.16;5035704;28;19920;-77
2021/09/27 02:51:07;;;;;;;;;;;;;;;10.52;74.37;100220.63;5037179;28;19925;-77
2021/09/27 02:53:33;;;;;;;;;;;;;;;10.49;74.20;100224.06;4999878;28;19921;-76
2021/09/27 02:56:26;;;;;;;;;;;;;;;10.44;73.93;100231.06;5019055;28;19921;-77
2021/09/27 02:59:13;;;;;;;;;;;;;;;10.42;74.31;100221.50;5034990;28;19932;-75
2021/09/27 03:01:45;;;;;;;;;;;;;;;10.37;74.08;100229.28;5007038;28;19921;-76
2021/09/27 03:04:12;;;;;;;;;;;;;;;10.36;74.49;100222.34;5031697;28;19920;-76
2021/09/27 03:06:58;;;;;;;;;;;;;;;10.32;74.59;100218.88;5038572;28;19921;-76
2021/09/27 03:09:42;;;;;;;;;;;;;;;10.31;74.22;100224.97;5000568;28;19925;-78
2021/09/27 03:12:30;;;;;;;;;;;;;;;10.31;74.32;100230.16;5035853;28;19921;-75
2021/09/27 03:15:16;;;;;;;;;;;;;;;10.28;73.98;100229.28;5038865;28;19950;-76
2021/09/27 03:17:45;;;;;;;;;;;;;;;10.22;74.30;100231.03;5017310;28;19925;-77
2021/09/27 03:20:17;;;;;;;;;;;;;;;10.18;74.39;100229.31;5017891;28;20387;-76
2021/09/27 03:23:00;;;;;;;;;;;;;;;10.17;74.21;100232.78;5033343;28;20424;-76
2021/09/27 03:25:29;;;;;;;;;;;;;;;10.17;74.39;100230.16;4979782;28;19929;-77
2021/09/27 03:27:55;;;;;;;;;;;;;;;10.14;74.17;100232.75;5034639;28;20399;-77
2021/09/27 03:30:27;;;;;;;;;;;;;;;10.09;74.08;100237.97;5017820;28;19925;-77
2021/09/27 03:32:52;;;;;;;;;;;;;;;10.15;74.74;100241.44;5033552;28;19960;-76
2021/09/27 03:35:37;;;;;;;;;;;;;;;10.23;74.34;100250.97;5018794;28;19968;-76
2021/09/27 03:38:05;;;;;;;;;;;;;;;10.31;74.74;100250.97;5018149;28;20917;-77
2021/09/27 03:40:38;;;;;;;;;;;;;;;10.34;74.59;100250.09;5037449;28;19927;-74
2021/09/27 03:43:09;;;;;;;;;;;;;;;10.36;74.39;100251.84;5016136;28;19959;-76
2021/09/27 03:45:44;;;;;;;;;;;;;;;10.38;74.36;100252.72;5033629;28;19959;-76
2021/09/27 03:48:16;;;;;;;;;;;;;;;10.40;74.24;100255.31;5039547;28;19927;-75
2021/09/27 03:50:50;;;;;;;;;;;;;;;10.47;74.53;100264.00;5015836;28;21433;-79
2021/09/27 03:53:39;;;;;;;;;;;;;;;10.49;74.29;100263.09;5017832;28;19928;-78
2021/09/27 03:56:12;;;;;;;;;;;;;;;10.53;74.39;100267.44;5020130;28;20046;-76
2021/09/27 03:58:43;;;;;;;;;;;;;;;10.56;74.23;100264.00;5027723;28;20617;-76
2021/09/27 04:01:16;;;;;;;;;;;;;;;10.54;73.45;100263.13;5032222;28;19921;-76
2021/09/27 04:03:41;;;;;;;;;;;;;;;10.55;74.04;100273.50;5050246;28;19967;-76
2021/09/27 04:06:26;;;;;;;;;;;;;;;10.55;73.96;100270.91;5039649;28;19985;-75
2021/09/27 04:08:57;;;;;;;;;;;;;;;10.58;73.78;100264.84;5038122;28;19933;-75
2021/09/27 04:11:31;;;;;;;;;;;;;;;10.62;73.77;100271.75;5035115;28;20270;-77
2021/09/27 04:14:16;;;;;;;;;;;;;;;10.64;73.75;100267.44;5007428;28;20383;-77
2021/09/27 04:16:59;;;;;;;;;;;;;;;10.65;73.85;100274.38;5017058;28;19921;-76
2021/09/27 04:19:31;;;;;;;;;;;;;;;10.68;73.69;100265.72;4998638;28;20049;-75
2021/09/27 04:22:15;;;;;;;;;;;;;;;10.66;73.57;100267.44;5031146;28;19925;-76
2021/09/27 04:25:03;;;;;;;;;;;;;;;10.68;73.70;100278.72;5016517;28;19959;-75
2021/09/27 04:27:49;;;;;;;;;;;;;;;10.73;73.39;100265.69;5003282;28;19920;-77
2021/09/27 04:30:18;;;;;;;;;;;;;;;10.74;73.32;100262.22;4993135;28;19936;-76
2021/09/27 04:32:52;;;;;;;;;;;;;;;10.72;73.02;100269.16;5024698;28;19925;-77
2021/09/27 04:35:26;;;;;;;;;;;;;;;10.70;73.54;100280.44;5031699;28;19931;-76
2021/09/27 04:37:53;;;;;;;;;;;;;;;10.72;73.33;100277.81;5016539;28;19921;-76
2021/09/27 04:40:21;;;;;;;;;;;;;;;10.74;73.08;100280.44;5032559;28;19928;-76
2021/09/27 04:42:56;;;;;;;;;;;;;;;10.76;73.12;100286.50;5035393;28;19925;-79
2021/09/27 04:45:39;;;;;;;;;;;;;;;10.78;73.01;100288.22;5038614;28;19972;-79
2021/09/27 04:48:23;;;;;;;;;;;;;;;10.77;72.83;100280.44;5024404;28;19967;-76
2021/09/27 04:50:52;;;;;;;;;;;;;;;10.82;73.04;100282.16;5016448;28;19964;-78
2021/09/27 04:53:25;;;;;;;;;;;;;;;10.87;72.89;100282.13;5037337;28;19921;-78
2021/09/27 04:55:57;;;;;;;;;;;;;;;10.93;72.90;100286.44;5032801;28;19932;-76
2021/09/27 04:58:25;;;;;;;;;;;;;;;10.97;72.95;100282.97;5035675;28;20065;-76
2021/09/27 05:01:02;;;;;;;;;;;;;;;11.02;72.69;100285.59;5016565;28;20372;-77
2021/09/27 05:03:48;;;;;;;;;;;;;;;11.06;72.47;100280.34;5037042;28;19947;-78
2021/09/27 05:06:32;;;;;;;;;;;;;;;11.08;72.45;100286.44;5015743;28;19944;-76
2021/09/27 05:09:01;;;;;;;;;;;;;;;11.09;72.62;100282.97;5036495;28;20063;-76
2021/09/27 05:11:32;;;;;;;;;;;;;;;11.13;72.21;100281.19;5010280;28;19978;-77
2021/09/27 05:14:16;;;;;;;;;;;;;;;11.15;72.11;100282.91;5042244;28;19925;-75
2021/09/27 05:16:42;;;;;;;;;;;;;;;11.18;71.80;100286.38;5024165;28;19925;-76
2021/09/27 05:19:15;;;;;;;;;;;;;;;11.24;72.10;100287.25;5032441;28;20000;-78
2021/09/27 05:21:49;;;;;;;;;;;;;;;11.24;72.15;100287.25;5015847;28;20016;-76
2021/09/27 05:24:34;;;;;;;;;;;;;;;11.29;71.98;100292.44;5036142;28;19932;-77
2021/09/27 05:27:08;;;;;;;;;;;;;;;11.30;71.87;100292.41;5008040;28;20381;-76
2021/09/27 05:29:43;;;;;;;;;;;;;;;11.40;72.05;100293.25;5031785;28;19925;-77
2021/09/27 05:32:21;;;;;;;;;;;;;;;11.42;71.67;100291.50;5014995;28;19987;-76
2021/09/27 05:34:50;;;;;;;;;;;;;;;11.48;71.79;100294.94;5014432;28;20385;-76
2021/09/27 05:37:28;;;;;;;;;;;;;;;11.49;71.70;100307.97;5013515;28;20395;-76
2021/09/27 05:40:05;;;;;;;;;;;;;;;11.52;71.57;100301.88;5015628;28;20007;-77
2021/09/27 05:42:40;;;;;;;;;;;;;;;11.58;71.48;100307.94;5015152;28;19921;-75
2021/09/27 05:45:24;;;;;;;;;;;;;;;11.58;71.53;100312.28;4997159;28;19936;-75
2021/09/27 05:48:16;;;;;;;;;;;;;;;11.60;71.45;100303.59;5031959;28;19960;-76
2021/09/27 05:50:46;;;;;;;;;;;;;;;11.61;70.80;100317.47;5001002;28;19925;-76
2021/09/27 05:53:15;;;;;;;;;;;;;;;11.59;71.16;100319.22;5033077;28;19901;-77
2021/09/27 05:55:47;;;;;;;;;;;;;;;11.56;70.98;100321.84;5035379;28;19921;-77
2021/09/27 05:58:29;;;;;;;;;;;;;;;11.55;71.20;100323.56;5042700;28;19920;-76
2021/09/27 06:01:04;;;;;;;;;;;;;;;11.62;71.00;100313.13;5032586;28;19944;-77
2021/09/27 06:03:34;;;;;;;;;;;;;;;11.67;70.92;100321.81;5032577;28;19926;-75
2021/09/27 06:06:09;;;;;;;;;;;;;;;11.69;71.08;100317.44;5032156;28;20016;-76
2021/09/27 06:08:41;;;;;;;;;;;;;;;11.72;70.45;100315.69;5033351;28;19974;-77
2021/09/27 06:11:09;;;;;;;;;;;;;;;11.70;70.72;100319.16;5021101;28;19932;-77
2021/09/27 06:13:39;;;;;;;;;;;;;;;11.68;70.69;100329.59;5026003;28;19925;-78
2021/09/27 06:16:08;;;;;;;;;;;;;;;11.66;70.70;100327.91;5011431;28;19952;-76
2021/09/27 06:18:42;;;;;;;;;;;;;;;11.68;70.62;100336.56;5019002;28;19925;-76
2021/09/27 06:21:27;;;;;;;;;;;;;;;11.66;70.49;100343.53;5010416;28;19995;-76
2021/09/27 06:23:58;;;;;;;;;;;;;;;11.67;70.90;100347.88;4995143;28;20024;-78
2021/09/27 06:26:28;;;;;;;;;;;;;;;11.64;70.14;100353.94;5011242;28;19925;-76
2021/09/27 06:29:00;;;;;;;;;;;;;;;11.59;69.97;100353.09;5001892;28;19989;-78
2021/09/27 06:31:35;;;;;;;;;;;;;;;11.56;70.47;100355.75;4979239;28;19928;-77
2021/09/27 06:34:09;;;;;;;;;;;;;;;11.65;70.18;100349.63;5013333;28;19921;-78
2021/09/27 06:36:35;;;;;;;;;;;;;;;11.63;70.15;100354.81;5014003;28;20407;-76
2021/09/27 06:39:02;;;;;;;;;;;;;;;11.63;70.15;100359.19;5002524;28;19922;-76
2021/09/27 06:41:30;;;;;;;;;;;;;;;11.62;70.25;100362.66;5012148;28;19929;-77
2021/09/27 06:43:56;;;;;;;;;;;;;;;11.65;70.23;100368.72;5011091;28;19983;-76
2021/09/27 06:46:22;;;;;;;;;;;;;;;11.66;70.21;100357.41;4979856;28;20067;-76
2021/09/27 06:48:48;;;;;;;;;;;;;;;11.71;69.79;100360.00;5015977;28;20042;-76
2021/09/27 06:51:14;;;;;;;;;;;;;;;11.71;70.26;100363.47;4976911;28;19965;-78
2021/09/27 06:53:40;;;;;;;;;;;;;;;11.78;70.06;100363.47;5011408;28;20377;-76
2021/09/27 06:56:05;;;;;;;;;;;;;;;11.82;70.20;100365.16;5007102;28;19976;-75
2021/09/27 06:58:31;;;;;;;;;;;;;;;11.85;69.98;100373.84;5019931;28;19929;-77
2021/09/27 07:00:57;;;;;;;;;;;;;;;11.90;69.86;100371.22;4994992;28;19921;-77
2021/09/27 07:03:22;;;;;;;;;;;;;;;11.94;69.91;100367.72;5012508;28;19969;-77
2021/09/27 07:05:48;;;;;;;;;;;;;;;11.95;69.75;100379.88;5014865;28;19921;-79
2021/09/27 07:08:14;;;;;;;;;;;;;;;11.93;70.05;100372.94;5012005;28;20020;-76
2021/09/27 07:10:39;;;;;;;;;;;;;;;11.95;69.87;100373.78;5011799;28;19925;-78
2021/09/27 07:13:05;;;;;;;;;;;;;;;11.97;69.63;100392.91;5012562;28;19925;-77
2021/09/27 07:15:33;;;;;;;;;;;;;;;11.97;69.50;100378.13;5013790;28;20285;-76
2021/09/27 07:17:59;;;;;;;;;;;;;;;12.04;69.63;100385.06;5014043;28;19921;-76
2021/09/27 07:20:26;;;;;;;;;;;;;;;11.98;69.47;100382.47;5012230;28;20431;-77
2021/09/27 07:22:52;;;;;;;;;;;;;;;11.96;69.45;100391.16;5011832;28;19928;-77
2021/09/27 07:25:17;;;;;;;;;;;;;;;11.97;69.27;100390.28;5016169;28;19936;-77
2021/09/27 07:27:47;;;;;;;;;;;;;;;12.05;69.37;100391.16;5017262;28;20711;-76
2021/09/27 07:30:15;;;;;;;;;;;;;;;12.18;69.32;100391.97;5020875;28;19933;-77
2021/09/27 07:32:42;;;;;;;;;;;;;;;12.28;69.32;100390.16;5021532;28;19921;-78
2021/09/27 07:35:11;;;;;;;;;;;;;;;12.38;69.15;100390.97;4999202;28;19921;-77
2021/09/27 07:37:40;;;;;;;;;;;;;;;12.44;68.89;100394.38;5005298;28;19956;-75
2021/09/27 07:40:09;;;;;;;;;;;;;;;12.44;68.72;100390.94;5039717;28;19925;-77
2021/09/27 07:42:35;;;;;;;;;;;;;;;12.46;68.85;100394.41;5019351;28;19929;-76
2021/09/27 07:45:01;;;;;;;;;;;;;;;12.49;68.44;100403.06;5035552;28;19931;-77
2021/09/27 07:47:26;;;;;;;;;;;;;;;12.55;68.63;100398.69;5012854;28;19959;-78
2021/09/27 07:49:52;;;;;;;;;;;;;;;12.61;68.55;100396.00;5019405;28;19991;-77
2021/09/27 07:52:18;;;;;;;;;;;;;;;12.72;68.02;100406.34;5017202;28;19927;-77
2021/09/27 07:54:43;;;;;;;;;;;;;;;12.72;67.93;100406.34;5017109;28;19925;-78
2021/09/27 07:57:09;;;;;;;;;;;;;;;12.67;68.10;100410.78;5016128;28;20486;-78
2021/09/27 07:59:34;;;;;;;;;;;;;;;12.73;68.50;100414.19;5018578;28;19922;-77
2021/09/27 08:02:00;;;;;;;;;;;;;;;12.82;68.11;100413.25;5001579;28;20338;-77
2021/09/27 08:04:26;;;;;;;;;;;;;;;12.90;67.97;100419.28;5016783;28;19966;-77
2021/09/27 08:06:51;;;;;;;;;;;;;;;12.96;67.57;100418.38;5007696;28;19989;-77
2021/09/27 08:09:17;;;;;;;;;;;;;;;12.95;67.50;100422.72;5031221;28;19932;-77
2021/09/27 08:11:46;;;;;;;;;;;;;;;12.96;67.46;100424.44;5021886;28;19975;-79
2021/09/27 08:14:18;;;;;;;;;;;;;;;12.93;67.51;100432.28;5033667;28;19925;-79
2021/09/27 08:16:48;;;;;;;;;;;;;;;12.87;67.34;100429.75;5019929;28;20645;-76
2021/09/27 08:19:18;;;;;;;;;;;;;;;12.75;67.43;100430.72;5002021;28;19921;-78
2021/09/27 08:21:55;;;;;;;;;;;;;;;12.71;67.33;100433.34;4984052;28;19921;-77
2021/09/27 08:24:47;;;;;;;;;;;;;;;12.61;67.28;100438.66;5015140;28;19931;-78
2021/09/27 08:27:24;;;;;;;;;;;;;;;12.49;67.55;100443.94;4995544;28;19926;-77
2021/09/27 08:29:50;;;;;;;;;;;;;;;12.44;67.65;100446.59;4999580;28;19925;-78
2021/09/27 08:32:15;;;;;;;;;;;;;;;12.38;67.58;100448.38;5011246;28;19921;-77
2021/09/27 08:34:43;;;;;;;;;;;;;;;12.31;67.72;100456.22;4981419;28;20060;-76
2021/09/27 08:37:09;;;;;;;;;;;;;;;12.25;67.57;100456.25;5010265;28;19952;-77
2021/09/27 08:39:34;;;;;;;;;;;;;;;12.23;67.83;100455.44;5018143;28;19934;-76
2021/09/27 08:42:10;;;;;;;;;;;;;;;12.18;67.87;100454.56;5024818;28;19985;-77
2021/09/27 08:45:04;;;;;;;;;;;;;;;12.16;67.94;100453.72;4993650;28;19922;-77
2021/09/27 08:47:46;;;;;;;;;;;;;;;12.18;67.72;100452.81;5016198;28;19921;-78
2021/09/27 08:50:24;;;;;;;;;;;;;;;12.16;67.63;100453.72;4976219;28;19925;-76
2021/09/27 08:52:49;;;;;;;;;;;;;;;12.14;67.80;100455.47;5014211;28;19926;-76
2021/09/27 08:55:16;;;;;;;;;;;;;;;12.11;67.44;100455.47;4996427;28;20044;-77
2021/09/27 08:57:48;;;;;;;;;;;;;;;12.09;67.99;100452.00;4985876;28;19928;-79
2021/09/27 09:00:35;;;;;;;;;;;;;;;12.05;67.31;100454.63;4999848;28;19948;-77
2021/09/27 09:03:21;;;;;;;;;;;;;;;12.04;67.79;100452.88;5019888;28;19921;-77
2021/09/27 09:06:02;;;;;;;;;;;;;;;12.02;67.79;100459.00;4998250;28;20417;-77
2021/09/27 09:08:28;;;;;;;;;;;;;;;12.02;67.92;100459.88;5016350;28;19921;-78
2021/09/27 09:11:20;;;;;;;;;;;;;;;12.07;67.84;100466.78;5021363;28;19968;-77
2021/09/27 09:13:52;;;;;;;;;;;;;;;12.05;67.56;100474.63;5029616;28;20385;-76
2021/09/27 09:16:19;;;;;;;;;;;;;;;12.11;68.06;100471.13;5040000;28;19940;-77
2021/09/27 09:18:51;;;;;;;;;;;;;;;12.19;67.65;100467.59;5020821;28;19947;-75
2021/09/27 09:21:19;;;;;;;;;;;;;;;12.28;67.70;100474.50;5021133;28;20388;-77
2021/09/27 09:23:48;;;;;;;;;;;;;;;12.32;67.54;100470.16;5003997;28;20687;-77
2021/09/27 09:26:16;;;;;;;;;;;;;;;12.32;67.59;100471.00;5043674;28;19928;-75
2021/09/27 09:28:43;;;;;;;;;;;;;;;12.28;67.14;100471.06;5020857;28;19932;-77
2021/09/27 09:31:23;;;;;;;;;;;;;;;12.27;67.69;100475.38;5006122;28;19921;-77
2021/09/27 09:34:00;;;;;;;;;;;;;;;12.28;67.50;100481.50;5043302;28;19921;-77
2021/09/27 09:36:32;;;;;;;;;;;;;;;12.30;67.85;100471.91;5023549;28;19952;-76
2021/09/27 09:38:58;;;;;;;;;;;;;;;12.33;67.13;100484.94;5050433;28;19920;-76
2021/09/27 09:41:43;;;;;;;;;;;;;;;12.31;67.51;100484.09;5040231;28;20760;-74
2021/09/27 09:44:27;;;;;;;;;;;;;;;12.32;67.45;100486.69;5016845;28;19925;-76
2021/09/27 09:47:00;;;;;;;;;;;;;;;12.29;67.11;100489.28;5013356;28;19928;-77
2021/09/27 09:49:30;;;;;;;;;;;;;;;12.18;67.39;100478.91;5038092;28;19995;-75
2021/09/27 09:52:03;;;;;;;;;;;;;;;12.13;67.28;100485.03;5025767;28;19975;-76
2021/09/27 09:54:29;;;;;;;;;;;;;;;12.07;67.32;100487.66;5023587;28;19921;-78
2021/09/27 09:56:58;;;;;;;;;;;;;;;12.02;67.64;100495.50;4997618;28;19956;-76
2021/09/27 09:59:35;;;;;;;;;;;;;;;12.02;67.49;100491.19;5032673;28;20343;-76
2021/09/27 10:02:01;;;;;;;;;;;;;;;12.01;67.53;100493.78;5036628;28;20451;-77
2021/09/27 10:04:50;;;;;;;;;;;;;;;12.02;67.75;100496.41;5016376;28;19932;-78
2021/09/27 10:07:17;;;;;;;;;;;;;;;12.08;67.50;100489.41;5012749;28;19924;-76
2021/09/27 10:10:03;;;;;;;;;;;;;;;12.18;67.67;100486.75;5033866;28;20000;-78
2021/09/27 10:12:55;;;;;;;;;;;;;;;12.27;67.39;100492.81;4966069;28;19957;-75
2021/09/27 10:15:20;;;;;;;;;;;;;;;12.31;67.52;100495.38;5032468;28;19936;-77
2021/09/27 10:18:00;;;;;;;;;;;;;;;12.40;67.41;100491.00;5019785;28;19921;-77
2021/09/27 10:20:33;;;;;;;;;;;;;;;12.44;67.12;100492.72;5037164;28;20403;-77
2021/09/27 10:22:59;;;;;;;;;;;;;;;12.52;67.02;100492.69;5039812;28;19947;-76
2021/09/27 10:25:25;;;;;;;;;;;;;;;12.55;66.97;100490.06;5035011;28;20616;-77
2021/09/27 10:27:53;;;;;;;;;;;;;;;12.53;66.24;100495.25;5015712;28;19927;-77
2021/09/27 10:30:25;;;;;;;;;;;;;;;12.73;67.30;100500.38;5017047;28;19947;-77
2021/09/27 10:32:56;;;;;;;;;;;;;;;12.82;66.69;100486.38;5036872;28;19921;-75
2021/09/27 10:35:40;;;;;;;;;;;;;;;12.96;66.66;100497.59;5005821;28;19957;-75
2021/09/27 10:38:11;;;;;;;;;;;;;;;13.21;66.43;100499.16;5038023;28;19971;-77
2021/09/27 10:40:38;;;;;;;;;;;;;;;13.47;66.32;100493.69;5014477;28;19925;-76
2021/09/27 10:43:06;;;;;;;;;;;;;;;13.70;66.04;100492.59;5015974;28;19972;-79
2021/09/27 10:45:35;;;;;;;;;;;;;;;13.94;65.41;100499.28;5034365;28;19921;-75
2021/09/27 10:48:01;;;;;;;;;;;;;;;14.15;65.50;100494.69;5018943;28;19928;-75
2021/09/27 10:50:33;;;;;;;;;;;;;;;14.38;64.87;100493.50;5033885;28;19929;-77
2021/09/27 10:53:14;;;;;;;;;;;;;;;14.61;65.12;100496.69;5015526;28;19921;-76
2021/09/27 10:55:46;;;;;;;;;;;;;;;14.76;64.24;100494.78;5014760;28;19952;-79
2021/09/27 10:58:23;;;;;;;;;;;;;;;14.97;64.39;100488.31;5033961;28;20259;-78
2021/09/27 11:00:51;;;;;;;;;;;;;;;15.12;63.77;100487.19;5032871;28;20031;-78
2021/09/27 11:03:37;;;;;;;;;;;;;;;15.16;63.55;100483.66;5016084;28;20019;-77
2021/09/27 11:06:21;;;;;;;;;;;;;;;15.18;62.98;100481.00;5033377;28;19932;-77
2021/09/27 11:08:47;;;;;;;;;;;;;;;15.45;63.72;100481.41;5042318;28;19905;-79
2021/09/27 11:11:16;;;;;;;;;;;;;;;15.63;63.43;100486.28;5023983;28;19920;-75
2021/09/27 11:13:42;;;;;;;;;;;;;;;15.73;63.02;100491.38;5018065;28;19925;-76
2021/09/27 11:16:31;;;;;;;;;;;;;;;15.78;62.97;100485.13;5013647;28;19925;-78
2021/09/27 11:19:08;;;;;;;;;;;;;;;15.81;62.17;100486.81;5023477;28;20014;-77
2021/09/27 11:21:36;;;;;;;;;;;;;;;15.81;62.21;100494.69;5002769;28;19921;-76
2021/09/27 11:24:12;;;;;;;;;;;;;;;15.69;62.16;100490.56;5038557;28;20071;-77
2021/09/27 11:26:44;;;;;;;;;;;;;;;15.47;61.62;100497.97;5057092;28;20011;-77
2021/09/27 11:29:16;;;;;;;;;;;;;;;15.13;61.86;100498.53;5054529;28;20453;-75
2021/09/27 11:31:43;;;;;;;;;;;;;;;14.86;62.08;100495.50;5030966;28;19921;-75
2021/09/27 11:34:48;;;;;;;;;;;;;;;14.59;62.45;100506.31;5038395;28;19992;-76
2021/09/27 11:37:17;;;;;;;;;;;;;;;14.29;62.70;100510.22;4948170;29;19927;-77
2021/09/27 11:39:52;;;;;;;;;;;;;;;14.01;62.48;100511.44;5015284;28;19988;-76
2021/09/27 11:42:33;;;;;;;;;;;;;;;13.81;63.63;100519.50;5045914;28;19925;-78
2021/09/27 11:45:00;;;;;;;;;;;;;;;13.58;63.26;100521.47;5044173;28;19976;-75
2021/09/27 11:47:42;;;;;;;;;;;;;;;13.44;63.82;100522.47;5021195;28;19925;-78
2021/09/27 11:50:34;;;;;;;;;;;;;;;13.42;64.18;100520.78;5014021;28;19931;-79
2021/09/27 11:53:06;;;;;;;;;;;;;;;13.38;64.04;100523.38;5025594;28;19925;-77
2021/09/27 11:55:34;;;;;;;;;;;;;;;13.40;64.02;100529.50;5037448;28;19952;-77
2021/09/27 11:58:31;;;;;;;;;;;;;;;13.38;64.07;100530.34;5034731;28;20379;-78
2021/09/27 12:01:04;;;;;;;;;;;;;;;13.30;64.47;100534.78;4999304;28;20071;-77
2021/09/27 12:03:42;;;;;;;;;;;;;;;13.31;64.38;100533.91;5009934;28;19921;-79
2021/09/27 12:06:11;;;;;;;;;;;;;;;13.25;64.43;100540.03;5033306;28;19973;-77
2021/09/27 12:08:57;;;;;;;;;;;;;;;13.22;64.42;100535.72;5035840;28;19928;-76
2021/09/27 12:11:23;;;;;;;;;;;;;;;13.18;64.39;100527.91;5017578;28;19924;-76
2021/09/27 12:13:50;;;;;;;;;;;;;;;13.05;64.15;100532.38;4999681;28;19925;-76
2021/09/27 12:16:27;;;;;;;;;;;;;;;13.03;64.45;100534.13;5003134;28;20004;-78
2021/09/27 12:18:55;;;;;;;;;;;;;;;13.00;64.57;100540.25;5017206;28;19921;-78
2021/09/27 12:21:38;;;;;;;;;;;;;;;12.99;64.33;100538.50;5013260;28;19920;-76
2021/09/27 12:24:08;;;;;;;;;;;;;;;13.00;64.58;100540.25;5037285;28;20035;-78
2021/09/27 12:26:42;;;;;;;;;;;;;;;13.03;63.85;100547.19;5034531;28;20355;-78
2021/09/27 12:29:16;;;;;;;;;;;;;;;13.10;64.63;100546.25;5019067;28;21022;-77
2021/09/27 12:31:49;;;;;;;;;;;;;;;13.13;64.42;100554.06;5012088;28;19947;-78
2021/09/27 12:34:18;;;;;;;;;;;;;;;13.23;64.24;100537.44;5037047;28;19993;-76
2021/09/27 12:36:44;;;;;;;;;;;;;;;13.28;64.17;100536.53;5017652;28;20921;-77
2021/09/27 12:39:10;;;;;;;;;;;;;;;13.31;64.24;100536.53;5018779;28;19927;-76
2021/09/27 12:41:37;;;;;;;;;;;;;;;13.36;64.01;100539.94;5017704;28;20011;-77
2021/09/27 12:44:07;;;;;;;;;;;;;;;13.45;64.13;100547.75;5037550;28;19984;-76
2021/09/27 12:46:33;;;;;;;;;;;;;;;13.29;63.81;100506.91;5037551;28;19929;-76
2021/09/27 12:49:00;;;;;;;;;;;;;;;13.62;64.11;100544.09;5022745;28;19925;-76
2021/09/27 12:51:31;;;;;;;;;;;;;;;13.73;63.86;100536.16;5027737;28;20019;-77
2021/09/27 12:54:03;;;;;;;;;;;;;;;13.86;63.65;100533.41;5014581;28;19967;-77
2021/09/27 12:56:29;;;;;;;;;;;;;;;13.89;63.70;100535.13;5018153;28;20024;-76
2021/09/27 12:58:59;;;;;;;;;;;;;;;13.86;63.30;100535.16;5003275;28;20043;-78
2021/09/27 13:01:26;;;;;;;;;;;;;;;13.83;63.16;100541.28;5035323;28;21229;-78